createdAt,value
2022-09-24T00:02:27.800Z,5.30
2022-09-24T00:04:56.145Z,4.88
2022-09-24T00:07:24.872Z,5.05
2022-09-24T00:09:53.029Z,5.55
2022-09-24T00:12:22.571Z,5.20
2022-09-24T00:14:50.822Z,5.47
2022-09-24T00:17:19.016Z,5.15
2022-09-24T00:19:47.198Z,5.50
2022-09-24T00:22:15.440Z,6.78
2022-09-24T00:25:01.250Z,5.20
2022-09-24T00:27:30.880Z,5.57
2022-09-24T00:29:59.372Z,5.07
2022-09-24T00:32:27.597Z,6.07
2022-09-24T00:34:55.846Z,5.60
2022-09-24T00:37:24.126Z,6.00
2022-09-24T00:39:52.293Z,5.85
2022-09-24T00:42:20.720Z,5.32
2022-09-24T00:44:56.168Z,5.93
2022-09-24T00:47:37.005Z,5.63
2022-09-24T00:50:20.320Z,5.78
2022-09-24T00:52:56.612Z,5.30
2022-09-24T00:55:26.076Z,5.60
2022-09-24T00:57:58.207Z,5.78
2022-09-24T01:00:27.899Z,6.13
2022-09-24T01:03:02.521Z,5.80
2022-09-24T01:05:31.081Z,5.78
2022-09-24T01:08:00.138Z,5.78
2022-09-24T01:10:51.782Z,5.70
2022-09-24T01:13:55.582Z,5.55
2022-09-24T01:16:37.425Z,5.35
2022-09-24T01:19:20.159Z,6.07
2022-09-24T01:21:55.267Z,5.43
2022-09-24T01:24:59.503Z,6.43
2022-09-24T01:27:52.297Z,5.18
2022-09-24T01:30:22.192Z,5.40
2022-09-24T01:32:55.737Z,5.38
2022-09-24T01:35:30.433Z,5.18
2022-09-24T01:38:03.156Z,5.68
2022-09-24T01:40:32.352Z,5.75
2022-09-24T01:43:03.229Z,5.97
2022-09-24T01:45:34.253Z,5.00
2022-09-24T01:48:03.241Z,5.65
2022-09-24T01:50:39.973Z,5.63
2022-09-24T01:53:17.003Z,6.15
2022-09-24T01:55:50.620Z,6.32
2022-09-24T01:58:24.509Z,5.68
2022-09-24T02:01:00.661Z,6.18
2022-09-24T02:03:34.505Z,6.15
2022-09-24T02:06:09.757Z,6.20
2022-09-24T02:08:42.647Z,5.20
2022-09-24T02:11:15.948Z,5.35
2022-09-24T02:13:48.640Z,6.43
2022-09-24T02:16:23.422Z,6.18
2022-09-24T02:18:56.497Z,5.72
2022-09-24T02:21:26.829Z,6.00
2022-09-24T02:24:00.832Z,5.50
2022-09-24T02:26:29.712Z,6.18
2022-09-24T02:28:59.138Z,5.65
2022-09-24T02:31:32.847Z,6.15
2022-09-24T02:34:25.960Z,6.40
2022-09-24T02:36:59.189Z,5.97
2022-09-24T02:39:28.223Z,6.03
2022-09-24T02:41:56.920Z,5.57
2022-09-24T02:44:25.574Z,5.82
2022-09-24T02:46:55.708Z,6.57
2022-09-24T02:49:23.988Z,6.40
2022-09-24T02:51:52.174Z,6.95
2022-09-24T02:54:21.772Z,6.68
2022-09-24T02:56:50.419Z,5.55
2022-09-24T02:59:19.559Z,5.85
2022-09-24T03:01:48.234Z,4.68
2022-09-24T03:04:18.452Z,4.97
2022-09-24T03:06:46.616Z,5.90
2022-09-24T03:09:15.081Z,5.85
2022-09-24T03:11:43.736Z,6.07
2022-09-24T03:14:12.411Z,4.70
2022-09-24T03:16:40.633Z,6.07
2022-09-24T03:19:09.123Z,6.55
2022-09-24T03:21:38.683Z,6.18
2022-09-24T03:24:07.015Z,6.60
2022-09-24T03:26:35.523Z,6.15
2022-09-24T03:29:04.236Z,6.15
2022-09-24T03:31:31.478Z,6.40
2022-09-24T03:33:59.975Z,6.53
2022-09-24T03:36:28.502Z,6.43
2022-09-24T03:38:58.523Z,7.22
2022-09-24T03:41:28.336Z,5.85
2022-09-24T03:43:56.802Z,6.65
2022-09-24T03:46:29.975Z,5.97
2022-09-24T03:49:00.580Z,5.97
2022-09-24T03:51:29.265Z,5.88
2022-09-24T03:53:58.821Z,6.00
2022-09-24T03:56:27.308Z,5.68
2022-09-24T03:58:56.116Z,5.70
2022-09-24T04:01:24.364Z,6.00
2022-09-24T04:03:54.061Z,5.70
2022-09-24T04:06:25.989Z,5.13
2022-09-24T04:08:55.531Z,5.32
2022-09-24T04:11:25.817Z,5.03
2022-09-24T04:13:54.393Z,5.60
2022-09-24T04:16:22.819Z,5.25
2022-09-24T04:18:51.528Z,6.10
2022-09-24T04:21:20.037Z,5.18
2022-09-24T04:23:48.394Z,5.53
2022-09-24T04:26:17.127Z,5.82
2022-09-24T04:28:46.680Z,5.07
2022-09-24T04:31:14.980Z,5.47
2022-09-24T04:33:43.260Z,6.80
2022-09-24T04:36:11.726Z,6.00
2022-09-24T04:38:40.016Z,5.60
2022-09-24T04:41:09.437Z,5.85
2022-09-24T04:43:37.827Z,6.43
2022-09-24T04:46:08.551Z,6.03
2022-09-24T04:48:38.203Z,4.95
2022-09-24T04:51:07.293Z,5.70
2022-09-24T04:53:37.186Z,5.00
2022-09-24T04:56:06.316Z,5.65
2022-09-24T04:58:34.521Z,5.43
2022-09-24T05:01:04.936Z,6.05
2022-09-24T05:03:34.973Z,5.57
2022-09-24T05:06:03.844Z,6.47
2022-09-24T05:08:32.327Z,5.60
2022-09-24T05:11:02.359Z,5.75
2022-09-24T05:13:30.639Z,6.13
2022-09-24T05:16:00.952Z,5.78
2022-09-24T05:18:29.688Z,6.07
2022-09-24T05:20:59.306Z,6.10
2022-09-24T05:23:29.483Z,6.25
2022-09-24T05:26:15.012Z,5.80
2022-09-24T05:28:43.862Z,5.35
2022-09-24T05:31:12.357Z,6.25
2022-09-24T05:33:40.729Z,5.80
2022-09-24T05:36:10.328Z,6.72
2022-09-24T05:38:41.564Z,6.53
2022-09-24T05:41:10.720Z,6.28
2022-09-24T05:43:38.943Z,6.80
2022-09-24T05:46:08.108Z,6.45
2022-09-24T05:48:36.822Z,6.22
2022-09-24T05:51:05.603Z,6.53
2022-09-24T05:53:35.165Z,6.28
2022-09-24T05:56:03.512Z,6.38
2022-09-24T05:58:32.010Z,6.20
2022-09-24T06:01:01.330Z,6.18
2022-09-24T06:03:31.762Z,6.55
2022-09-24T06:06:02.028Z,6.50
2022-09-24T06:08:32.504Z,9.35
2022-09-24T06:11:02.756Z,6.25
2022-09-24T06:13:31.512Z,6.20
2022-09-24T06:16:02.747Z,6.57
2022-09-24T06:18:31.391Z,6.00
2022-09-24T06:21:03.796Z,6.32
2022-09-24T06:23:32.410Z,6.38
2022-09-24T06:26:02.206Z,6.25
2022-09-24T06:28:30.761Z,6.28
2022-09-24T06:31:01.737Z,8.55
2022-09-24T06:33:30.551Z,9.07
2022-09-24T06:36:02.427Z,6.95
2022-09-24T06:38:31.442Z,5.97
2022-09-24T06:41:03.457Z,6.25
2022-09-24T06:43:33.382Z,6.60
2022-09-24T06:46:03.270Z,7.10
2022-09-24T06:48:32.133Z,6.43
2022-09-24T06:51:00.483Z,6.15
2022-09-24T06:53:28.753Z,6.25
2022-09-24T06:55:59.778Z,5.70
2022-09-24T06:58:29.909Z,6.10
2022-09-24T07:01:01.492Z,6.18
2022-09-24T07:03:32.114Z,6.63
2022-09-24T07:06:03.185Z,7.93
2022-09-24T07:08:31.829Z,6.93
2022-09-24T07:11:00.718Z,7.78
2022-09-24T07:13:30.570Z,6.88
2022-09-24T07:15:58.806Z,6.13
2022-09-24T07:18:27.032Z,6.30
2022-09-24T07:20:56.402Z,6.68
2022-09-24T07:23:26.153Z,6.45
2022-09-24T07:25:57.621Z,6.90
2022-09-24T07:28:26.701Z,10.13
2022-09-24T07:31:00.732Z,7.32
2022-09-24T07:33:29.628Z,6.15
2022-09-24T07:35:58.151Z,5.85
2022-09-24T07:38:26.928Z,5.80
2022-09-24T07:40:59.407Z,5.95
2022-09-24T07:43:29.084Z,5.78
2022-09-24T07:45:58.022Z,6.03
2022-09-24T07:48:27.730Z,6.10
2022-09-24T07:50:55.952Z,5.53
2022-09-24T07:53:24.601Z,6.38
2022-09-24T07:55:52.819Z,6.22
2022-09-24T07:58:21.894Z,7.05
2022-09-24T08:00:50.077Z,6.55
2022-09-24T08:03:18.295Z,6.75
2022-09-24T08:05:48.168Z,6.28
2022-09-24T08:08:16.320Z,6.40
2022-09-24T08:10:45.023Z,7.72
2022-09-24T08:13:13.603Z,6.07
2022-09-24T08:15:41.886Z,6.03
2022-09-24T08:18:10.860Z,11.77
2022-09-24T08:20:40.251Z,6.38
2022-09-24T08:23:11.179Z,7.45
2022-09-24T08:25:39.556Z,6.07
2022-09-24T08:28:10.762Z,5.38
2022-09-24T08:30:40.356Z,6.13
2022-09-24T08:33:08.876Z,6.43
2022-09-24T08:35:38.307Z,5.97
2022-09-24T08:38:06.677Z,6.15
2022-09-24T08:40:40.593Z,6.00
2022-09-24T08:43:26.929Z,6.18
2022-09-24T08:46:16.133Z,6.72
2022-09-24T08:48:51.430Z,5.82
2022-09-24T08:51:23.034Z,6.53
2022-09-24T08:53:59.242Z,7.50
2022-09-24T08:56:33.212Z,6.80
2022-09-24T08:59:05.916Z,6.10
2022-09-24T09:01:44.594Z,6.93
2022-09-24T09:04:26.837Z,6.72
2022-09-24T09:07:09.493Z,6.68
2022-09-24T09:09:47.529Z,6.90
2022-09-24T09:12:23.948Z,7.20
2022-09-24T09:14:58.461Z,7.13
2022-09-24T09:17:42.372Z,8.02
2022-09-24T09:20:18.471Z,8.93
2022-09-24T09:22:49.724Z,8.13
2022-09-24T09:25:25.797Z,7.55
2022-09-24T09:28:02.842Z,7.32
2022-09-24T09:30:43.576Z,8.00
2022-09-24T09:33:33.168Z,7.10
2022-09-24T09:36:28.423Z,7.53
2022-09-24T09:39:09.528Z,6.05
2022-09-24T09:41:47.904Z,6.57
2022-09-24T09:44:23.156Z,6.75
2022-09-24T09:46:58.346Z,6.97
2022-09-24T09:49:32.994Z,6.82
2022-09-24T09:52:05.390Z,7.38
2022-09-24T09:54:43.433Z,7.72
2022-09-24T09:57:18.051Z,7.72
2022-09-24T09:59:51.081Z,7.53
2022-09-24T10:02:27.065Z,6.95
2022-09-24T10:04:58.848Z,7.65
2022-09-24T10:07:27.040Z,7.55
2022-09-24T10:10:05.202Z,7.47
2022-09-24T10:12:33.511Z,7.00
2022-09-24T10:15:06.446Z,7.90
2022-09-24T10:17:38.953Z,7.53
2022-09-24T10:20:15.570Z,8.57
2022-09-24T10:22:51.840Z,9.68
2022-09-24T10:25:26.204Z,8.32
2022-09-24T10:28:17.008Z,8.95
2022-09-24T10:30:59.066Z,8.95
2022-09-24T10:33:28.640Z,8.30
2022-09-24T10:36:07.893Z,9.23
2022-09-24T10:38:36.267Z,8.82
2022-09-24T10:41:25.957Z,9.95
2022-09-24T10:43:56.233Z,9.57
2022-09-24T10:46:47.854Z,9.32
2022-09-24T10:49:31.995Z,8.27
2022-09-24T10:52:13.325Z,8.52
2022-09-24T10:54:57.109Z,10.25
2022-09-24T10:57:32.677Z,9.15
2022-09-24T11:00:12.454Z,8.50
2022-09-24T11:03:25.133Z,7.88
2022-09-24T11:05:57.638Z,7.38
2022-09-24T11:08:50.216Z,8.02
2022-09-24T11:11:32.547Z,7.80
2022-09-24T11:14:17.665Z,6.35
2022-09-24T11:20:05.323Z,7.20
2022-09-24T11:22:44.612Z,7.47
2022-09-24T11:25:32.008Z,6.53
2022-09-24T11:28:23.001Z,5.97
2022-09-24T11:31:06.246Z,7.32
2022-09-24T11:33:58.673Z,7.90
2022-09-24T11:36:46.901Z,8.23
2022-09-24T11:39:44.124Z,8.82
2022-09-24T11:42:25.484Z,8.10
2022-09-24T11:45:47.618Z,7.97
2022-09-24T11:48:46.253Z,8.07
2022-09-24T11:51:29.339Z,7.68
2022-09-24T11:54:07.434Z,8.95
2022-09-24T11:56:43.095Z,6.97
2022-09-24T11:59:20.833Z,7.25
2022-09-24T12:01:55.278Z,6.22
2022-09-24T12:04:29.166Z,7.05
2022-09-24T12:07:06.627Z,7.30
2022-09-24T12:09:42.357Z,6.78
2022-09-24T12:12:15.372Z,6.00
2022-09-24T12:14:51.104Z,6.68
2022-09-24T12:17:25.312Z,6.80
2022-09-24T12:20:00.584Z,6.60
2022-09-24T12:22:31.952Z,5.57
2022-09-24T12:25:02.874Z,6.32
2022-09-24T12:27:36.714Z,6.15
2022-09-24T12:30:40.139Z,5.73
2022-09-24T12:33:15.929Z,5.88
2022-09-24T12:36:04.487Z,5.55
2022-09-24T12:38:38.152Z,5.57
2022-09-24T12:41:32.482Z,5.10
2022-09-24T12:44:12.842Z,5.63
2022-09-24T12:46:43.865Z,6.40
2022-09-24T12:49:26.883Z,5.80
2022-09-24T12:51:57.266Z,5.68
2022-09-24T12:54:30.358Z,5.30
2022-09-24T12:57:14.771Z,4.63
2022-09-24T12:59:52.612Z,5.35
2022-09-24T13:02:23.641Z,5.47
2022-09-24T13:05:27.199Z,5.30
2022-09-24T13:08:01.693Z,5.57
2022-09-24T13:10:32.771Z,4.68
2022-09-24T13:13:02.975Z,5.97
2022-09-24T13:15:37.511Z,6.88
2022-09-24T13:18:24.185Z,6.00
2022-09-24T13:21:03.206Z,5.82
2022-09-24T13:23:44.572Z,6.65
2022-09-24T13:26:28.137Z,5.28
2022-09-24T13:29:00.752Z,5.88
2022-09-24T13:31:44.767Z,5.00
2022-09-24T13:34:23.668Z,5.30
2022-09-24T13:36:58.970Z,4.57
2022-09-24T13:39:36.682Z,4.85
2022-09-24T13:42:16.140Z,6.00
2022-09-24T13:44:48.713Z,4.97
2022-09-24T13:47:28.467Z,5.03
2022-09-24T13:50:08.273Z,5.13
2022-09-24T13:52:42.804Z,5.07
2022-09-24T13:55:20.172Z,5.45
2022-09-24T13:57:50.172Z,4.68
2022-09-24T14:00:24.375Z,6.03
2022-09-24T14:03:02.144Z,5.35
2022-09-24T14:05:35.977Z,4.63
2022-09-24T14:08:08.658Z,4.78
2022-09-24T14:10:37.503Z,4.32
2022-09-24T14:13:22.367Z,3.40
2022-09-24T14:15:58.984Z,3.65
2022-09-24T14:18:29.646Z,3.63
2022-09-24T14:21:06.166Z,3.67
2022-09-24T14:23:40.023Z,3.17
2022-09-24T14:26:13.696Z,3.73
2022-09-24T14:28:42.023Z,3.22
2022-09-24T14:31:11.719Z,3.65
2022-09-24T14:33:41.403Z,3.65
2022-09-24T14:36:13.732Z,3.95
2022-09-24T14:38:57.593Z,4.05
2022-09-24T14:41:30.251Z,5.10
2022-09-24T14:44:03.979Z,4.53
2022-09-24T14:46:38.893Z,3.90
2022-09-24T14:49:19.366Z,4.15
2022-09-24T14:51:56.869Z,4.38
2022-09-24T14:54:33.510Z,4.38
2022-09-24T14:57:13.444Z,4.30
2022-09-24T14:59:42.779Z,4.32
2022-09-24T15:02:20.954Z,4.50
2022-09-24T15:04:52.530Z,4.25
2022-09-24T15:07:25.072Z,5.43
2022-09-24T15:09:56.531Z,3.83
2022-09-24T15:12:31.052Z,4.63
2022-09-24T15:15:02.603Z,3.95
2022-09-24T15:17:34.284Z,4.30
2022-09-24T15:20:05.350Z,3.95
2022-09-24T15:22:33.642Z,4.05
2022-09-24T15:25:02.607Z,4.05
2022-09-24T15:27:33.531Z,4.28
2022-09-24T15:30:07.068Z,3.85
2022-09-24T15:32:36.743Z,4.10
2022-09-24T15:35:08.518Z,3.80
2022-09-24T15:37:40.130Z,3.80
2022-09-24T15:40:20.454Z,4.32
2022-09-24T15:42:48.791Z,3.92
2022-09-24T15:45:19.693Z,4.25
2022-09-24T15:47:49.509Z,3.60
2022-09-24T15:50:18.632Z,4.18
2022-09-24T15:52:53.402Z,3.78
2022-09-24T15:57:53.100Z,4.10
2022-09-24T16:00:23.531Z,4.00
2022-09-24T16:02:57.103Z,4.18
2022-09-24T16:05:26.435Z,4.80
2022-09-24T16:07:54.928Z,4.63
2022-09-24T16:10:23.226Z,4.55
2022-09-24T16:12:51.443Z,4.90
2022-09-24T16:15:20.533Z,4.28
2022-09-24T16:17:50.803Z,4.35
2022-09-24T16:20:20.479Z,4.28
2022-09-24T16:22:48.697Z,4.95
2022-09-24T16:25:17.339Z,4.53
2022-09-24T16:27:45.644Z,5.00
2022-09-24T16:30:14.205Z,5.15
2022-09-24T16:32:42.422Z,4.90
2022-09-24T16:35:13.150Z,4.95
2022-09-24T16:37:42.833Z,6.13
2022-09-24T16:40:12.380Z,4.88
2022-09-24T16:42:41.013Z,5.00
2022-09-24T16:45:12.603Z,4.93
2022-09-24T16:47:41.342Z,4.80
2022-09-24T16:50:10.914Z,4.47
2022-09-24T16:52:40.158Z,4.80
2022-09-24T16:55:10.963Z,5.40
2022-09-24T16:57:39.731Z,4.90
2022-09-24T17:00:10.897Z,5.30
2022-09-24T17:02:40.117Z,5.20
2022-09-24T17:05:09.414Z,4.75
2022-09-24T17:07:37.896Z,5.43
2022-09-24T17:10:16.069Z,6.72
2022-09-24T17:12:48.180Z,6.53
2022-09-24T17:15:20.467Z,5.80
2022-09-24T17:17:50.666Z,4.80
2022-09-24T17:20:20.230Z,6.70
2022-09-24T17:22:49.787Z,5.25
2022-09-24T17:25:19.565Z,6.20
2022-09-24T17:27:47.738Z,6.53
2022-09-24T17:30:16.474Z,6.47
2022-09-24T17:32:44.957Z,5.68
2022-09-24T17:35:14.725Z,5.70
2022-09-24T17:37:43.855Z,5.40
2022-09-24T17:40:12.696Z,5.70
2022-09-24T17:42:45.749Z,4.85
2022-09-24T17:45:14.432Z,4.38
2022-09-24T17:47:57.904Z,3.85
2022-09-24T17:50:26.595Z,3.88
2022-09-24T17:52:55.123Z,3.22
2022-09-24T17:55:23.365Z,4.18
2022-09-24T17:57:52.884Z,4.55
2022-09-24T18:00:21.113Z,4.43
2022-09-24T18:02:49.491Z,4.20
2022-09-24T18:05:17.895Z,4.47
2022-09-24T18:07:46.069Z,4.60
2022-09-24T18:10:17.237Z,5.20
2022-09-24T18:12:45.820Z,5.72
2022-09-24T18:15:15.448Z,4.60
2022-09-24T18:17:44.159Z,5.05
2022-09-24T18:20:12.800Z,5.60
2022-09-24T18:22:40.985Z,5.75
2022-09-24T18:25:11.240Z,5.38
2022-09-24T18:27:39.480Z,7.68
2022-09-24T18:30:11.572Z,6.10
2022-09-24T18:32:41.155Z,6.18
2022-09-24T18:35:10.741Z,5.13
2022-09-24T18:37:39.317Z,4.82
2022-09-24T18:40:10.202Z,4.15
2022-09-24T18:42:38.796Z,4.57
2022-09-24T18:45:08.557Z,4.43
2022-09-24T18:47:38.104Z,4.05
2022-09-24T18:50:09.690Z,4.10
2022-09-24T18:52:38.391Z,3.92
2022-09-24T18:55:08.334Z,4.20
2022-09-24T18:57:37.853Z,4.20
2022-09-24T19:00:28.236Z,4.60
2022-09-24T19:02:57.123Z,3.92
2022-09-24T19:05:26.946Z,4.90
2022-09-24T19:07:55.145Z,4.38
2022-09-24T19:10:23.333Z,3.78
2022-09-24T19:12:54.026Z,3.60
2022-09-24T19:15:22.204Z,3.75
2022-09-24T19:17:52.969Z,3.55
2022-09-24T19:20:21.488Z,3.25
2022-09-24T19:22:59.802Z,2.65
2022-09-24T19:25:32.800Z,2.58
2022-09-24T19:28:01.493Z,2.30
2022-09-24T19:30:29.972Z,2.65
2022-09-24T19:32:59.740Z,3.97
2022-09-24T19:35:28.257Z,3.70
2022-09-24T19:37:57.878Z,5.30
2022-09-24T19:40:26.398Z,5.53
2022-09-24T19:42:54.938Z,3.70
2022-09-24T19:45:23.445Z,3.35
2022-09-24T19:47:51.913Z,2.47
2022-09-24T19:50:20.116Z,2.88
2022-09-24T19:52:48.708Z,3.63
2022-09-24T19:55:20.440Z,4.07
2022-09-24T19:57:50.063Z,4.00
2022-09-24T20:00:18.401Z,5.47
2022-09-24T20:02:46.984Z,5.68
2022-09-24T20:05:15.365Z,4.20
2022-09-24T20:07:45.745Z,3.22
2022-09-24T20:10:14.549Z,2.95
2022-09-24T20:12:46.600Z,2.90
2022-09-24T20:15:14.901Z,2.75
2022-09-24T20:17:43.085Z,3.63
2022-09-24T20:20:11.552Z,3.88
2022-09-24T20:22:39.731Z,4.25
2022-09-24T20:25:08.994Z,5.57
2022-09-24T20:27:51.605Z,4.85
2022-09-24T20:30:23.699Z,5.20
2022-09-24T20:32:52.413Z,5.80
2022-09-24T20:35:21.266Z,5.68
2022-09-24T20:37:49.824Z,5.82
2022-09-24T20:40:18.308Z,6.90
2022-09-24T20:42:47.278Z,6.90
2022-09-24T20:45:16.178Z,7.22
2022-09-24T20:47:49.896Z,6.93
2022-09-24T20:50:18.831Z,8.00
2022-09-24T20:52:47.342Z,7.85
2022-09-24T20:55:15.834Z,8.77
2022-09-24T20:57:44.617Z,7.38
2022-09-24T21:00:15.136Z,7.10
2022-09-24T21:02:44.963Z,6.75
2022-09-24T21:05:13.567Z,7.95
2022-09-24T21:07:42.741Z,7.35
2022-09-24T21:10:13.487Z,8.15
2022-09-24T21:12:41.831Z,7.18
2022-09-24T21:15:13.694Z,7.97
2022-09-24T21:17:54.767Z,8.02
2022-09-24T21:20:33.028Z,8.45
2022-09-24T21:23:01.291Z,8.68
2022-09-24T21:25:52.815Z,8.68
2022-09-24T21:28:18.034Z,8.38
2022-09-24T21:31:03.256Z,8.77
2022-09-24T21:33:32.083Z,9.40
2022-09-24T21:36:02.855Z,9.98
2022-09-24T21:38:31.473Z,9.18
2022-09-24T21:41:01.389Z,10.20
2022-09-24T21:43:34.605Z,9.10
2022-09-24T21:46:05.792Z,8.90
2022-09-24T21:48:35.247Z,7.65
2022-09-24T21:51:07.576Z,9.50
2022-09-24T21:53:36.735Z,9.18
2022-09-24T21:56:06.523Z,10.13
2022-09-24T21:58:34.841Z,9.18
2022-09-24T22:01:05.295Z,10.20
2022-09-24T22:03:34.652Z,8.57
2022-09-24T22:06:05.527Z,7.95
2022-09-24T22:08:33.828Z,8.07
2022-09-24T22:11:04.533Z,8.38
2022-09-24T22:13:34.640Z,7.57
2022-09-24T22:16:03.604Z,7.45
2022-09-24T22:18:33.472Z,8.55
2022-09-24T22:21:10.395Z,7.20
2022-09-24T22:23:39.007Z,8.00
2022-09-24T22:26:09.078Z,9.07
2022-09-24T22:28:38.484Z,8.93
2022-09-24T22:31:09.980Z,8.20
2022-09-24T22:33:56.433Z,9.95
2022-09-24T22:36:27.837Z,8.90
2022-09-24T22:38:57.337Z,9.52
2022-09-24T22:41:26.318Z,9.88
2022-09-24T22:43:54.500Z,9.73
2022-09-24T22:46:27.019Z,10.65
2022-09-24T22:48:56.217Z,9.98
2022-09-24T22:51:28.248Z,8.95
2022-09-24T22:53:57.225Z,10.23
2022-09-24T22:56:27.416Z,9.27
2022-09-24T22:58:58.980Z,10.25
2022-09-24T23:01:31.219Z,10.02
2022-09-24T23:04:01.268Z,10.88
2022-09-24T23:06:32.893Z,9.93
2022-09-24T23:09:01.834Z,9.82
2022-09-24T23:11:32.535Z,10.25
2022-09-24T23:14:03.473Z,10.10
2022-09-24T23:16:34.207Z,8.98
2022-09-24T23:19:06.125Z,9.95
2022-09-24T23:21:36.786Z,9.80
2022-09-24T23:24:08.048Z,9.95
2022-09-24T23:26:36.732Z,9.93
2022-09-24T23:29:06.747Z,10.25
2022-09-24T23:31:37.007Z,9.23
2022-09-24T23:34:07.748Z,9.32
2022-09-24T23:36:37.786Z,10.45
2022-09-24T23:39:06.683Z,9.15
2022-09-24T23:41:35.304Z,12.65
2022-09-24T23:44:04.133Z,10.55
2022-09-24T23:46:33.684Z,11.18
2022-09-24T23:49:02.130Z,11.27
2022-09-24T23:51:30.344Z,10.77
2022-09-24T23:53:59.941Z,10.52
2022-09-24T23:56:28.932Z,9.60
2022-09-24T23:58:57.690Z,8.80
